Phillips Army Air Field
KAPG : now visible

Airfield :











YOU CAN JOIN US ON...

 
LOGIN :

Register | Disclaimer

   EN    FR    IT 

 









Legend :    VFR   Marginal VFR   IFR   Intensive IFR   Very Intensive IFR
Visi :
Ceiling :
>= 8 km
>= 3000ft
5 to 8 km
1000 to 3000 ft
1500m to 5 km
500 to 1000 ft
800 to 1500m
200 to 500 ft
< 800m
< 200 ft
Symbols :   Thunderstorms  Fog  Heavy snow  Heavy precipitations  Wind > 20 kt






- Airport Elevation : 57 ft


KAPG - Phillips Army Air Field

CURRENT METAR :
  • 291358Z 22012KT 7SM OVC012 25/22 A3002 RMK AO2A SLP169 T02480224 PNO TSNO $

EXPIRED METARs :
  • 291258Z 21012KT 7SM OVC010 24/22 A3004 RMK AO2A SLP175 T02380219 PNO TSNO $
  • 291158Z 20010KT 7SM BKN010 OVC019 24/22 A3003 RMK AO2A CIG 010V020 BKN V SCT SLP172 50000 PNO TSNO $
  • 291138Z 19010KT 8SM SCT008 OVC020 23/22 A3003 RMK AO2A CIG 008V020 SLP172 PNO TSNO $
  • 291058Z AUTO 20008KT 9SM OVC008 23/22 A3003 RMK AO2 SLP172 T02310222 PNO TSNO $

TAF N/A
KZDC FIR / North America



MET'MAP, your aeronautical weather chart ! - Copyright ORBIFLY December 2007 - Disclaimer

ORBIFLY MET'MAP TEAM :

Programming & Development : Alexandra Zaïnal
Concept & original design : Baudouin d'Aumeries
Assistance for programming : Marc-Olivier Méhu
Technical & hardware support : Manuel Goepfert

Contact : metmap@orbifly.com




SOURCES & CREDITS :

   NOAA       Earth
Advisory